Time;durP1;ratioP1;P1;durP2;ratioP2;P2;SDS_P1;SDS_P2;PMS_P1;PMS_P2;Temp;Humidity;BMP_temperature;BMP_pressure;BME280_temperature;BME280_humidity;BME280_pressure;Samples;Min_cycle;Max_cycle;Signal;HPM_P1;HPM_P2
2021/08/16 00:00:27;;;;;;;10.45;7.55;;;;;;;;;;5031559;28;20096;-75
2021/08/16 00:02:53;;;;;;;9.30;6.90;;;;;;;;;;5031845;28;20091;-74
2021/08/16 00:05:19;;;;;;;10.00;7.38;;;;;;;;;;5032011;28;20482;-74
2021/08/16 00:07:46;;;;;;;9.27;7.07;;;;;;;;;;5033272;28;20041;-74
2021/08/16 00:10:13;;;;;;;12.38;7.95;;;;;;;;;;5032421;28;20036;-75
2021/08/16 00:12:39;;;;;;;9.80;8.00;;;;;;;;;;5032859;28;20056;-75
2021/08/16 00:15:06;;;;;;;14.32;9.50;;;;;;;;;;5033114;28;20077;-74
2021/08/16 00:17:32;;;;;;;10.43;7.32;;;;;;;;;;5033346;28;20030;-74
2021/08/16 00:19:58;;;;;;;10.93;8.98;;;;;;;;;;5033294;28;20017;-74
2021/08/16 00:22:24;;;;;;;13.25;8.95;;;;;;;;;;5033394;28;20037;-74
2021/08/16 00:24:50;;;;;;;14.98;10.38;;;;;;;;;;5032306;28;20022;-75
2021/08/16 00:27:17;;;;;;;13.43;10.65;;;;;;;;;;5014384;28;20025;-75
2021/08/16 00:29:42;;;;;;;18.42;11.43;;;;;;;;;;5031214;28;20038;-76
2021/08/16 00:32:09;;;;;;;19.70;12.98;;;;;;;;;;5031902;28;20399;-76
2021/08/16 00:34:35;;;;;;;17.95;12.52;;;;;;;;;;5031466;28;20045;-75
2021/08/16 00:37:01;;;;;;;20.48;12.80;;;;;;;;;;5032217;28;20451;-76
2021/08/16 00:39:26;;;;;;;18.13;12.32;;;;;;;;;;5031749;28;20097;-76
2021/08/16 00:41:53;;;;;;;17.38;12.45;;;;;;;;;;5031620;28;20036;-76
2021/08/16 00:44:19;;;;;;;18.35;13.35;;;;;;;;;;5031821;28;20496;-76
2021/08/16 00:46:45;;;;;;;19.95;13.25;;;;;;;;;;5032140;28;20394;-76
2021/08/16 00:49:11;;;;;;;17.85;14.15;;;;;;;;;;5031073;28;20029;-76
2021/08/16 00:51:37;;;;;;;23.00;16.15;;;;;;;;;;5031313;28;20030;-76
2021/08/16 00:54:05;;;;;;;19.38;15.63;;;;;;;;;;5031406;28;20021;-76
2021/08/16 00:56:31;;;;;;;17.70;13.88;;;;;;;;;;5031402;28;20026;-75
2021/08/16 00:59:03;;;;;;;17.83;13.93;;;;;;;;;;5031033;28;20075;-76
2021/08/16 01:01:29;;;;;;;;;;;;;;;;;;5014058;28;20037;-76
2021/08/16 01:03:55;;;;;;;18.65;13.20;;;;;;;;;;5031372;28;19913;-76
2021/08/16 01:06:21;;;;;;;15.48;12.43;;;;;;;;;;5031382;28;20036;-76
2021/08/16 01:08:48;;;;;;;18.48;12.95;;;;;;;;;;5013460;28;20033;-75
2021/08/16 01:11:15;;;;;;;14.75;12.43;;;;;;;;;;5031077;28;20113;-76
2021/08/16 01:13:41;;;;;;;17.15;13.02;;;;;;;;;;5031062;28;20029;-76
2021/08/16 01:16:08;;;;;;;16.00;12.20;;;;;;;;;;5031238;28;20417;-76
2021/08/16 01:18:34;;;;;;;18.63;13.10;;;;;;;;;;5030907;28;20124;-75
2021/08/16 01:21:01;;;;;;;16.58;13.30;;;;;;;;;;5030878;28;20036;-75
2021/08/16 01:23:27;;;;;;;19.80;13.27;;;;;;;;;;5013748;28;20026;-74
2021/08/16 01:25:53;;;;;;;15.80;12.75;;;;;;;;;;5030925;28;20104;-76
2021/08/16 01:28:20;;;;;;;15.93;12.93;;;;;;;;;;5030893;28;20061;-75
2021/08/16 01:30:49;;;;;;;16.25;12.35;;;;;;;;;;5012653;28;20060;-75
2021/08/16 01:33:15;;;;;;;13.15;11.60;;;;;;;;;;5031399;28;20150;-75
2021/08/16 01:35:41;;;;;;;20.30;11.45;;;;;;;;;;5058278;22;20085;-80
2021/08/16 01:38:07;;;;;;;18.05;11.50;;;;;;;;;;5050929;28;20440;-80
2021/08/16 01:40:33;;;;;;;14.00;10.82;;;;;;;;;;5050456;28;20033;-80
2021/08/16 01:42:59;;;;;;;17.45;10.60;;;;;;;;;;5050588;28;20030;-80
2021/08/16 01:45:25;;;;;;;15.68;10.30;;;;;;;;;;5034636;28;20096;-80
2021/08/16 01:47:52;;;;;;;13.60;9.48;;;;;;;;;;5029751;28;20049;-80
2021/08/16 01:50:18;;;;;;;11.95;8.68;;;;;;;;;;5029837;28;20030;-80
2021/08/16 01:52:44;;;;;;;17.23;8.68;;;;;;;;;;5029909;28;20029;-80
2021/08/16 01:55:10;;;;;;;12.32;8.38;;;;;;;;;;5029345;28;20474;-81
2021/08/16 01:57:36;;;;;;;11.90;8.15;;;;;;;;;;5029545;28;20386;-80
2021/08/16 02:00:03;;;;;;;12.80;7.72;;;;;;;;;;5029184;28;20033;-80
2021/08/16 02:02:29;;;;;;;15.73;8.82;;;;;;;;;;5012271;28;20038;-80
2021/08/16 02:04:56;;;;;;;8.90;7.15;;;;;;;;;;5029139;28;20045;-80
2021/08/16 02:07:22;;;;;;;11.15;7.45;;;;;;;;;;5029793;28;20028;-80
2021/08/16 02:09:48;;;;;;;11.48;7.45;;;;;;;;;;5028782;28;20053;-80
2021/08/16 02:12:14;;;;;;;10.27;6.20;;;;;;;;;;5029860;28;20064;-80
2021/08/16 02:14:40;;;;;;;13.13;7.80;;;;;;;;;;5029104;28;20522;-80
2021/08/16 02:17:07;;;;;;;13.50;7.55;;;;;;;;;;5011872;28;20029;-80
2021/08/16 02:19:33;;;;;;;11.00;7.57;;;;;;;;;;5029491;28;20022;-81
2021/08/16 02:21:59;;;;;;;11.70;6.75;;;;;;;;;;5029647;28;20038;-81
2021/08/16 02:24:25;;;;;;;11.32;7.25;;;;;;;;;;5012552;28;20069;-80
2021/08/16 02:26:51;;;;;;;13.10;7.38;;;;;;;;;;5012373;28;20038;-80
2021/08/16 02:29:18;;;;;;;8.55;7.00;;;;;;;;;;5012183;28;20145;-80
2021/08/16 02:31:44;;;;;;;11.65;7.53;;;;;;;;;;5029567;28;20026;-80
2021/08/16 02:34:10;;;;;;;10.88;7.00;;;;;;;;;;5029818;28;20033;-81
2021/08/16 02:36:36;;;;;;;13.60;7.40;;;;;;;;;;5029277;28;20036;-80
2021/08/16 02:39:03;;;;;;;12.38;7.15;;;;;;;;;;5029346;28;20026;-80
2021/08/16 02:41:29;;;;;;;11.52;6.80;;;;;;;;;;5029815;28;20022;-80
2021/08/16 02:43:55;;;;;;;12.27;7.43;;;;;;;;;;5029901;28;20037;-81
2021/08/16 02:46:21;;;;;;;12.10;7.53;;;;;;;;;;5030880;28;20029;-80
2021/08/16 02:48:47;;;;;;;10.15;6.90;;;;;;;;;;5011804;28;20065;-80
2021/08/16 02:51:13;;;;;;;10.90;6.97;;;;;;;;;;5028757;28;20433;-80
2021/08/16 02:53:39;;;;;;;12.98;6.90;;;;;;;;;;5029527;28;20033;-81
2021/08/16 02:56:05;;;;;;;11.98;7.47;;;;;;;;;;5028772;28;20033;-80
2021/08/16 02:58:31;;;;;;;11.52;7.20;;;;;;;;;;5029923;28;20030;-79
2021/08/16 03:00:57;;;;;;;13.00;7.55;;;;;;;;;;5029846;28;20108;-81
2021/08/16 03:03:23;;;;;;;11.07;6.90;;;;;;;;;;5032827;28;20034;-80
2021/08/16 03:05:49;;;;;;;9.88;6.97;;;;;;;;;;5032591;28;20025;-81
2021/08/16 03:08:15;;;;;;;10.15;6.60;;;;;;;;;;5028114;28;20034;-80
2021/08/16 03:10:41;;;;;;;18.35;7.00;;;;;;;;;;5028142;28;20093;-81
2021/08/16 03:13:07;;;;;;;10.85;7.40;;;;;;;;;;5029127;28;20045;-80
2021/08/16 03:15:33;;;;;;;12.52;7.03;;;;;;;;;;5028926;28;20026;-81
2021/08/16 03:18:00;;;;;;;11.48;7.35;;;;;;;;;;5011459;28;20034;-81
2021/08/16 03:20:26;;;;;;;11.70;6.75;;;;;;;;;;5028760;28;20018;-81
2021/08/16 03:22:52;;;;;;;11.43;6.20;;;;;;;;;;5028157;28;20034;-80
2021/08/16 03:25:18;;;;;;;8.27;5.68;;;;;;;;;;5028047;28;20037;-80
2021/08/16 03:27:44;;;;;;;10.57;6.47;;;;;;;;;;5029792;28;20026;-80
2021/08/16 03:30:11;;;;;;;11.75;6.45;;;;;;;;;;5028340;28;20040;-81
2021/08/16 03:32:37;;;;;;;13.80;6.85;;;;;;;;;;5027586;28;20568;-80
2021/08/16 03:35:03;;;;;;;13.77;6.03;;;;;;;;;;5027922;28;20091;-80
2021/08/16 03:37:33;;;;;;;12.63;5.60;;;;;;;;;;5027874;28;20022;-81
2021/08/16 03:39:59;;;;;;;10.30;5.90;;;;;;;;;;5032805;28;20022;-81
2021/08/16 03:42:25;;;;;;;10.95;5.65;;;;;;;;;;5028702;28;20034;-81
2021/08/16 03:44:51;;;;;;;10.15;5.43;;;;;;;;;;5011897;28;20093;-80
2021/08/16 03:47:18;;;;;;;10.52;5.70;;;;;;;;;;5030623;28;20034;-80
2021/08/16 03:49:44;;;;;;;8.32;5.38;;;;;;;;;;5029164;28;20026;-80
2021/08/16 03:52:10;;;;;;;10.13;5.25;;;;;;;;;;5029674;28;20025;-80
2021/08/16 03:54:36;;;;;;;11.23;5.10;;;;;;;;;;5011592;28;20060;-80
2021/08/16 03:57:02;;;;;;;9.13;5.63;;;;;;;;;;5029227;28;20026;-81
2021/08/16 03:59:28;;;;;;;11.65;5.63;;;;;;;;;;5028814;28;20034;-80
2021/08/16 04:01:54;;;;;;;11.93;5.45;;;;;;;;;;5028833;28;20034;-81
2021/08/16 04:04:20;;;;;;;8.32;4.95;;;;;;;;;;5030734;28;20661;-80
2021/08/16 04:06:46;;;;;;;9.00;5.00;;;;;;;;;;5031462;28;20053;-80
2021/08/16 04:09:12;;;;;;;8.98;4.80;;;;;;;;;;5031676;28;20045;-80
2021/08/16 04:11:39;;;;;;;10.88;5.35;;;;;;;;;;5030360;28;20026;-80
2021/08/16 04:14:05;;;;;;;8.85;4.90;;;;;;;;;;5010803;28;20046;-80
2021/08/16 04:16:32;;;;;;;8.75;5.03;;;;;;;;;;5028791;28;20033;-80
2021/08/16 04:18:58;;;;;;;8.15;4.88;;;;;;;;;;5029781;28;20022;-80
2021/08/16 04:21:24;;;;;;;10.48;5.07;;;;;;;;;;5028271;28;20403;-80
2021/08/16 04:23:50;;;;;;;11.93;5.18;;;;;;;;;;5029523;28;20026;-80
2021/08/16 04:26:16;;;;;;;8.88;4.72;;;;;;;;;;5028005;28;20041;-80
2021/08/16 04:28:42;;;;;;;7.32;4.95;;;;;;;;;;5027635;28;20030;-80
2021/08/16 04:31:08;;;;;;;9.60;5.38;;;;;;;;;;5028155;28;20049;-80
2021/08/16 04:33:34;;;;;;;9.45;4.93;;;;;;;;;;5028181;28;20033;-80
2021/08/16 04:36:00;;;;;;;10.68;5.57;;;;;;;;;;5027656;28;20080;-80
2021/08/16 04:38:26;;;;;;;8.52;5.30;;;;;;;;;;5011297;28;20025;-80
2021/08/16 04:40:52;;;;;;;9.15;5.25;;;;;;;;;;4999993;28;20498;-79
2021/08/16 04:43:19;;;;;;;6.82;5.13;;;;;;;;;;5015568;28;20030;-80
2021/08/16 04:45:45;;;;;;;12.95;5.47;;;;;;;;;;5015028;28;20109;-80
2021/08/16 04:48:11;;;;;;;10.60;5.65;;;;;;;;;;5015482;28;20034;-80
2021/08/16 04:50:37;;;;;;;8.95;5.78;;;;;;;;;;5014667;28;20060;-80
2021/08/16 04:53:03;;;;;;;10.95;5.07;;;;;;;;;;5015231;28;20490;-80
2021/08/16 04:55:29;;;;;;;6.28;4.78;;;;;;;;;;4997662;28;20025;-80
2021/08/16 04:57:55;;;;;;;11.27;5.15;;;;;;;;;;5015927;28;20026;-80
2021/08/16 05:00:25;;;;;;;14.48;5.25;;;;;;;;;;5015145;28;20033;-80
2021/08/16 05:02:51;;;;;;;8.43;4.82;;;;;;;;;;4998642;28;20397;-80
2021/08/16 05:05:18;;;;;;;8.13;4.80;;;;;;;;;;5015635;28;20077;-80
2021/08/16 05:08:03;;;;;;;8.73;4.95;;;;;;;;;;4998185;28;20056;-79
2021/08/16 05:10:30;;;;;;;10.45;4.95;;;;;;;;;;5020540;28;20046;-80
2021/08/16 05:12:57;;;;;;;7.55;4.38;;;;;;;;;;5020562;28;20053;-79
2021/08/16 05:15:23;;;;;;;13.30;4.38;;;;;;;;;;5021285;28;20046;-79
2021/08/16 05:17:49;;;;;;;13.68;4.45;;;;;;;;;;5019654;28;20061;-80
2021/08/16 05:20:16;;;;;;;9.30;3.92;;;;;;;;;;5019135;28;20080;-80
2021/08/16 05:22:43;;;;;;;6.43;3.58;;;;;;;;;;5019763;28;20026;-80
2021/08/16 05:25:10;;;;;;;6.75;3.10;;;;;;;;;;5019520;28;20030;-80
2021/08/16 05:27:36;;;;;;;6.78;3.85;;;;;;;;;;5020588;28;20041;-80
2021/08/16 05:30:02;;;;;;;9.50;4.07;;;;;;;;;;5020117;28;20022;-80
2021/08/16 05:32:28;;;;;;;6.47;4.13;;;;;;;;;;5020590;28;20433;-80
2021/08/16 05:34:54;;;;;;;8.77;3.80;;;;;;;;;;5020930;28;20034;-80
2021/08/16 05:37:20;;;;;;;7.78;3.75;;;;;;;;;;5021680;28;20026;-80
2021/08/16 05:39:46;;;;;;;9.63;4.25;;;;;;;;;;5002157;28;20052;-80
2021/08/16 05:42:15;;;;;;;7.35;3.92;;;;;;;;;;5019850;28;20034;-80
2021/08/16 05:44:41;;;;;;;10.88;3.97;;;;;;;;;;5019489;28;20053;-80
2021/08/16 05:47:07;;;;;;;6.93;3.88;;;;;;;;;;5019507;28;20036;-80
2021/08/16 05:49:33;;;;;;;5.80;3.33;;;;;;;;;;5018731;28;20026;-80
2021/08/16 05:51:59;;;;;;;7.28;3.38;;;;;;;;;;5020043;28;20042;-80
2021/08/16 05:54:25;;;;;;;8.73;3.53;;;;;;;;;;5018475;28;20032;-80
2021/08/16 05:56:51;;;;;;;7.97;3.63;;;;;;;;;;5018375;28;20502;-79
2021/08/16 05:59:17;;;;;;;4.47;2.63;;;;;;;;;;5017234;28;20097;-80
2021/08/16 06:01:43;;;;;;;7.22;2.67;;;;;;;;;;5017743;28;20469;-80
2021/08/16 06:04:10;;;;;;;7.25;2.60;;;;;;;;;;5017776;28;20026;-80
2021/08/16 06:06:36;;;;;;;9.02;2.38;;;;;;;;;;5018865;28;20410;-80
2021/08/16 06:09:03;;;;;;;10.95;3.17;;;;;;;;;;5018919;28;20022;-80
2021/08/16 06:11:29;;;;;;;7.10;2.00;;;;;;;;;;5019799;28;20394;-80
2021/08/16 06:13:55;;;;;;;8.77;2.30;;;;;;;;;;5000760;28;20585;-80
2021/08/16 06:16:21;;;;;;;6.63;1.85;;;;;;;;;;5018535;28;20482;-79
2021/08/16 06:18:47;;;;;;;7.15;2.03;;;;;;;;;;5018021;28;20041;-80
2021/08/16 06:21:13;;;;;;;7.47;2.00;;;;;;;;;;5000327;28;20462;-80
2021/08/16 06:23:39;;;;;;;5.20;1.85;;;;;;;;;;5018165;28;20034;-80
2021/08/16 06:26:07;;;;;;;7.97;1.70;;;;;;;;;;5018924;28;20033;-80
2021/08/16 06:28:33;;;;;;;8.18;1.90;;;;;;;;;;5018545;28;20026;-80
2021/08/16 06:30:59;;;;;;;4.55;2.17;;;;;;;;;;5017806;28;20113;-80
2021/08/16 06:33:25;;;;;;;5.13;2.00;;;;;;;;;;5017654;28;20030;-80
2021/08/16 06:35:53;;;;;;;8.82;2.80;;;;;;;;;;5017812;28;20033;-80
2021/08/16 06:38:25;;;;;;;6.20;2.38;;;;;;;;;;5018933;28;20018;-80
2021/08/16 06:40:55;;;;;;;7.40;2.50;;;;;;;;;;5001676;28;20026;-80
2021/08/16 06:43:22;;;;;;;6.80;1.92;;;;;;;;;;5018103;28;20025;-79
2021/08/16 06:45:48;;;;;;;5.03;2.20;;;;;;;;;;5000630;28;20104;-80
2021/08/16 06:48:15;;;;;;;7.93;2.22;;;;;;;;;;5000221;28;20026;-80
2021/08/16 06:50:41;;;;;;;6.38;2.10;;;;;;;;;;5018310;28;20034;-79
2021/08/16 06:53:07;;;;;;;5.30;1.90;;;;;;;;;;5019263;28;20499;-81
2021/08/16 06:55:33;;;;;;;5.03;2.15;;;;;;;;;;5018352;28;20056;-80
2021/08/16 06:57:59;;;;;;;4.97;1.80;;;;;;;;;;5019542;28;20478;-80
2021/08/16 07:00:25;;;;;;;4.13;2.20;;;;;;;;;;5018692;28;20034;-80
2021/08/16 07:02:51;;;;;;;6.45;2.30;;;;;;;;;;5018520;28;20040;-80
2021/08/16 07:05:17;;;;;;;9.77;3.08;;;;;;;;;;5019288;28;20054;-80
2021/08/16 07:07:43;;;;;;;6.13;2.53;;;;;;;;;;5018527;28;20061;-80
2021/08/16 07:10:09;;;;;;;6.55;2.67;;;;;;;;;;5019049;28;20030;-79
2021/08/16 07:12:36;;;;;;;4.70;2.53;;;;;;;;;;5018606;28;20034;-80
2021/08/16 07:15:02;;;;;;;6.20;2.70;;;;;;;;;;5018888;28;20039;-79
2021/08/16 07:17:28;;;;;;;6.05;2.63;;;;;;;;;;5019204;28;20014;-81
2021/08/16 07:19:54;;;;;;;6.20;2.50;;;;;;;;;;5018402;28;20391;-80
2021/08/16 07:22:20;;;;;;;9.27;3.03;;;;;;;;;;5017935;28;20026;-80
2021/08/16 07:24:46;;;;;;;6.50;2.70;;;;;;;;;;5018809;28;20022;-80
2021/08/16 07:27:12;;;;;;;7.50;2.28;;;;;;;;;;5018146;28;20038;-80
2021/08/16 07:29:38;;;;;;;6.75;2.50;;;;;;;;;;5018434;28;20034;-80
2021/08/16 07:32:04;;;;;;;8.80;2.30;;;;;;;;;;5016950;28;20072;-80
2021/08/16 07:34:30;;;;;;;6.97;2.00;;;;;;;;;;5040207;22;20034;31
2021/08/16 07:36:56;;;;;;;6.30;2.30;;;;;;;;;;5008926;28;20125;-77
2021/08/16 07:39:23;;;;;;;4.18;2.20;;;;;;;;;;5012095;28;20105;-77
2021/08/16 07:41:49;;;;;;;4.47;2.72;;;;;;;;;;5012662;28;20018;-76
2021/08/16 07:44:15;;;;;;;6.30;2.65;;;;;;;;;;5006523;28;20094;-75
2021/08/16 07:46:41;;;;;;;6.18;3.15;;;;;;;;;;4992728;28;20038;-75
2021/08/16 07:49:07;;;;;;;4.38;2.30;;;;;;;;;;4992856;28;20117;-76
2021/08/16 07:51:34;;;;;;;7.28;3.25;;;;;;;;;;4992328;28;20438;-75
2021/08/16 07:53:59;;;;;;;6.03;2.47;;;;;;;;;;4975062;28;20036;-75
2021/08/16 07:56:25;;;;;;;6.75;2.22;;;;;;;;;;4992666;28;20026;-75
2021/08/16 07:58:51;;;;;;;7.15;2.42;;;;;;;;;;4992215;28;20420;-78
2021/08/16 08:01:17;;;;;;;7.00;2.72;;;;;;;;;;4992544;28;20101;-76
2021/08/16 08:03:44;;;;;;;6.90;2.65;;;;;;;;;;4992649;28;20368;-76
2021/08/16 08:06:10;;;;;;;9.00;3.50;;;;;;;;;;4992284;28;20150;-76
2021/08/16 08:08:36;;;;;;;7.75;2.65;;;;;;;;;;4992297;28;20498;-76
2021/08/16 08:11:02;;;;;;;4.57;2.55;;;;;;;;;;4992147;28;20092;-76
2021/08/16 08:13:28;;;;;;;11.25;3.10;;;;;;;;;;4992507;28;20053;-75
2021/08/16 08:15:54;;;;;;;5.35;2.67;;;;;;;;;;4994256;28;20030;-75
2021/08/16 08:18:20;;;;;;;10.50;2.97;;;;;;;;;;5012076;28;20030;-74
2021/08/16 08:20:46;;;;;;;8.65;2.75;;;;;;;;;;5011368;28;20050;-76
2021/08/16 08:23:12;;;;;;;5.13;2.50;;;;;;;;;;4994590;28;20524;-76
2021/08/16 08:25:40;;;;;;;7.90;2.65;;;;;;;;;;5012208;28;20026;-75
2021/08/16 08:28:11;;;;;;;7.60;2.35;;;;;;;;;;4994346;28;20076;-77
2021/08/16 08:30:38;;;;;;;12.60;2.83;;;;;;;;;;5011437;28;20018;-75
2021/08/16 08:33:04;;;;;;;8.40;2.58;;;;;;;;;;5011783;28;20097;-75
2021/08/16 08:35:30;;;;;;;8.27;2.78;;;;;;;;;;5011634;28;20698;-75
2021/08/16 08:37:56;;;;;;;11.18;3.35;;;;;;;;;;5011669;28;20028;-75
2021/08/16 08:40:22;;;;;;;5.05;2.25;;;;;;;;;;4993711;28;20030;-75
2021/08/16 08:42:55;;;;;;;7.93;2.17;;;;;;;;;;4994226;28;20022;-75
2021/08/16 08:45:21;;;;;;;6.57;2.55;;;;;;;;;;5015727;28;20120;-76
2021/08/16 08:47:48;;;;;;;9.30;2.45;;;;;;;;;;5015627;28;20402;-78
2021/08/16 08:50:15;;;;;;;6.72;2.42;;;;;;;;;;5015234;28;20049;-75
2021/08/16 08:52:42;;;;;;;5.35;2.47;;;;;;;;;;5016112;28;20030;-75
2021/08/16 08:55:08;;;;;;;6.35;1.95;;;;;;;;;;5015788;28;20036;-76
2021/08/16 08:57:37;;;;;;;3.83;1.80;;;;;;;;;;5015562;28;20022;-76
2021/08/16 09:00:03;;;;;;;7.97;2.33;;;;;;;;;;5015185;28;20085;-75
2021/08/16 09:02:29;;;;;;;5.47;2.08;;;;;;;;;;5015292;28;20030;-77
2021/08/16 09:04:55;;;;;;;8.48;2.40;;;;;;;;;;5015319;28;20065;-77
2021/08/16 09:07:34;;;;;;;4.10;2.08;;;;;;;;;;5015302;28;20055;-76
2021/08/16 09:10:00;;;;;;;7.93;2.20;;;;;;;;;;5014808;28;20184;-76
2021/08/16 09:12:27;;;;;;;7.50;2.05;;;;;;;;;;4997813;28;20437;-76
2021/08/16 09:14:54;;;;;;;7.50;2.22;;;;;;;;;;5015161;28;20033;-76
2021/08/16 09:17:27;;;;;;;6.45;2.05;;;;;;;;;;5015181;28;20041;-76
2021/08/16 09:19:53;;;;;;;10.75;2.17;;;;;;;;;;5014565;28;20474;-75
2021/08/16 09:22:23;;;;;;;6.60;1.98;;;;;;;;;;5014881;28;20174;-76
2021/08/16 09:24:58;;;;;;;7.32;3.17;;;;;;;;;;5015059;28;20057;-76
2021/08/16 09:27:24;;;;;;;5.68;2.05;;;;;;;;;;5015203;28;20029;-76
2021/08/16 09:29:51;;;;;;;5.97;2.00;;;;;;;;;;5014371;28;20026;-76
2021/08/16 09:32:17;;;;;;;5.57;1.73;;;;;;;;;;5014861;28;20097;-76
2021/08/16 09:34:47;;;;;;;6.25;2.03;;;;;;;;;;5014992;28;20018;-76
2021/08/16 09:37:24;;;;;;;7.38;2.60;;;;;;;;;;5015433;28;20033;-76
2021/08/16 09:40:04;;;;;;;5.93;1.98;;;;;;;;;;4996921;28;20022;-75
2021/08/16 09:43:01;;;;;;;7.18;2.15;;;;;;;;;;5014748;28;20030;-78
2021/08/16 09:45:31;;;;;;;6.05;1.65;;;;;;;;;;4986784;28;20561;-76
2021/08/16 09:48:01;;;;;;;9.38;2.42;;;;;;;;;;4977775;28;20042;-76
2021/08/16 09:50:39;;;;;;;6.30;2.00;;;;;;;;;;4994480;28;20057;-76
2021/08/16 09:53:09;;;;;;;5.43;1.75;;;;;;;;;;4994679;28;20474;-76
2021/08/16 09:55:38;;;;;;;5.97;2.10;;;;;;;;;;4994460;28;20061;-76
2021/08/16 09:58:06;;;;;;;5.43;1.80;;;;;;;;;;4994969;28;20042;-77
2021/08/16 10:00:32;;;;;;;4.82;2.92;;;;;;;;;;4994260;28;20027;-77
2021/08/16 10:02:59;;;;;;;5.47;2.05;;;;;;;;;;4994716;28;20081;-76
2021/08/16 10:05:25;;;;;;;7.60;1.88;;;;;;;;;;4994748;28;20026;-77
2021/08/16 10:07:51;;;;;;;10.73;2.00;;;;;;;;;;4977088;28;20045;-76
2021/08/16 10:10:18;;;;;;;5.57;2.10;;;;;;;;;;4994482;28;20030;-76
2021/08/16 10:12:46;;;;;;;5.50;1.88;;;;;;;;;;4977293;28;20141;-77
2021/08/16 10:15:12;;;;;;;4.93;1.80;;;;;;;;;;5008159;28;20061;-76
2021/08/16 10:17:40;;;;;;;4.15;1.80;;;;;;;;;;5014051;28;20026;-75
2021/08/16 10:20:07;;;;;;;9.05;1.90;;;;;;;;;;5013809;28;20034;-76
2021/08/16 10:22:37;;;;;;;4.90;1.90;;;;;;;;;;5013854;28;20029;-76
2021/08/16 10:25:13;;;;;;;7.00;1.83;;;;;;;;;;5013971;28;20026;-76
2021/08/16 10:27:39;;;;;;;5.05;1.98;;;;;;;;;;5013874;28;20041;-76
2021/08/16 10:30:09;;;;;;;5.72;1.65;;;;;;;;;;5013232;28;20084;-76
2021/08/16 10:32:35;;;;;;;5.97;2.25;;;;;;;;;;5013997;28;20018;-76
2021/08/16 10:35:07;;;;;;;6.35;2.10;;;;;;;;;;5013600;28;20465;-76
2021/08/16 10:37:33;;;;;;;;;;;;;;;;;;5014026;28;20021;-76
2021/08/16 10:39:59;;;;;;;8.40;2.00;;;;;;;;;;5013166;28;19905;-76
2021/08/16 10:42:37;;;;;;;5.30;2.25;;;;;;;;;;5013626;28;20053;-76
2021/08/16 10:45:04;;;;;;;6.20;2.05;;;;;;;;;;5013531;28;20495;-77
2021/08/16 10:47:31;;;;;;;4.72;2.10;;;;;;;;;;5013437;28;20046;-76
2021/08/16 10:50:03;;;;;;;7.03;2.05;;;;;;;;;;5012872;28;20029;-76
2021/08/16 10:52:29;;;;;;;4.03;1.70;;;;;;;;;;5013202;28;20018;-76
2021/08/16 10:54:55;;;;;;;4.45;1.85;;;;;;;;;;4995835;28;20502;-77
2021/08/16 10:57:21;;;;;;;6.68;2.13;;;;;;;;;;4995730;28;20069;-77
2021/08/16 10:59:47;;;;;;;5.65;2.33;;;;;;;;;;5012831;28;20024;-77
2021/08/16 11:02:13;;;;;;;6.22;2.05;;;;;;;;;;5013400;28;20034;-76
2021/08/16 11:04:44;;;;;;;10.05;2.28;;;;;;;;;;5013239;28;20034;-76
2021/08/16 11:07:12;;;;;;;6.47;2.25;;;;;;;;;;5012528;28;20687;-76
2021/08/16 11:09:38;;;;;;;5.53;1.77;;;;;;;;;;5012571;28;20025;-76
2021/08/16 11:12:06;;;;;;;5.65;2.20;;;;;;;;;;5013244;28;20450;-77
2021/08/16 11:14:33;;;;;;;7.38;2.53;;;;;;;;;;5013034;28;20105;-76
2021/08/16 11:17:00;;;;;;;5.60;1.98;;;;;;;;;;5013119;28;20491;-77
2021/08/16 11:19:27;;;;;;;6.10;2.17;;;;;;;;;;5012559;28;20028;-76
2021/08/16 11:22:00;;;;;;;4.07;2.03;;;;;;;;;;5012947;28;20030;-77
2021/08/16 11:24:34;;;;;;;4.28;2.08;;;;;;;;;;4995333;28;20125;-77
2021/08/16 11:27:05;;;;;;;8.27;2.40;;;;;;;;;;5013110;28;20429;-77
2021/08/16 11:29:31;;;;;;;6.40;2.40;;;;;;;;;;5012513;28;20022;-77
2021/08/16 11:31:59;;;;;;;5.13;2.10;;;;;;;;;;5012895;28;20026;-77
2021/08/16 11:34:29;;;;;;;5.20;2.50;;;;;;;;;;4995658;28;20023;-77
2021/08/16 11:36:56;;;;;;;5.32;2.30;;;;;;;;;;5012316;28;20025;-78
2021/08/16 11:39:48;;;;;;;12.65;2.53;;;;;;;;;;5012210;28;20493;-77
2021/08/16 11:42:14;;;;;;;6.35;2.33;;;;;;;;;;5008239;28;20137;-77
2021/08/16 11:44:40;;;;;;;6.43;2.80;;;;;;;;;;5012517;28;20394;-78
2021/08/16 11:47:06;;;;;;;6.22;1.90;;;;;;;;;;5012591;28;20025;-76
2021/08/16 11:49:37;;;;;;;8.65;2.30;;;;;;;;;;5011947;28;20076;-77
2021/08/16 11:52:03;;;;;;;5.38;2.33;;;;;;;;;;5012315;28;20029;-78
2021/08/16 11:54:31;;;;;;;6.57;1.95;;;;;;;;;;5012337;28;20105;-78
2021/08/16 11:56:58;;;;;;;6.60;1.98;;;;;;;;;;5012596;28;20093;-77
2021/08/16 11:59:25;;;;;;;5.57;1.80;;;;;;;;;;5012047;28;20034;-76
2021/08/16 12:01:52;;;;;;;5.15;2.28;;;;;;;;;;5012425;28;20526;-77
2021/08/16 12:04:18;;;;;;;7.55;2.13;;;;;;;;;;5012425;28;20029;-78
2021/08/16 12:06:47;;;;;;;10.73;2.75;;;;;;;;;;5012162;28;20049;-77
2021/08/16 12:09:13;;;;;;;5.78;2.78;;;;;;;;;;5011775;28;20022;-78
2021/08/16 12:11:39;;;;;;;5.45;2.10;;;;;;;;;;5012325;28;20505;-78
2021/08/16 12:14:05;;;;;;;6.28;2.10;;;;;;;;;;5012038;28;20037;-77
2021/08/16 12:16:35;;;;;;;4.63;2.28;;;;;;;;;;5012110;28;20034;-77
2021/08/16 12:19:02;;;;;;;6.97;1.90;;;;;;;;;;4993888;28;20033;-77
2021/08/16 12:21:28;;;;;;;7.80;2.22;;;;;;;;;;4994573;28;20037;-78
2021/08/16 12:23:55;;;;;;;5.50;2.10;;;;;;;;;;5012419;28;20026;-77
2021/08/16 12:26:38;;;;;;;8.18;1.90;;;;;;;;;;5023370;28;20026;-76
2021/08/16 12:29:15;;;;;;;5.40;2.05;;;;;;;;;;5012052;28;20034;-77
2021/08/16 12:31:41;;;;;;;5.88;2.28;;;;;;;;;;5016078;28;20026;-78
2021/08/16 12:34:08;;;;;;;10.40;2.17;;;;;;;;;;5012183;28;20025;-77
2021/08/16 12:36:38;;;;;;;4.32;1.75;;;;;;;;;;5011644;28;20121;-77
2021/08/16 12:39:07;;;;;;;5.03;2.15;;;;;;;;;;5011422;28;20105;-77
2021/08/16 12:41:33;;;;;;;5.88;2.38;;;;;;;;;;5011953;28;20333;-78
2021/08/16 12:44:00;;;;;;;5.72;2.28;;;;;;;;;;5011961;28;20028;-77
2021/08/16 12:46:26;;;;;;;5.82;2.20;;;;;;;;;;5011936;28;20025;-77
2021/08/16 12:48:53;;;;;;;9.00;2.72;;;;;;;;;;5011542;28;20121;-78
2021/08/16 12:51:19;;;;;;;5.20;1.92;;;;;;;;;;5011577;28;20105;-77
2021/08/16 12:53:45;;;;;;;5.57;2.08;;;;;;;;;;5011470;28;20574;-77
2021/08/16 12:56:11;;;;;;;5.60;2.22;;;;;;;;;;5011838;28;20026;-78
2021/08/16 12:58:37;;;;;;;5.20;2.53;;;;;;;;;;5011680;28;20093;-78
2021/08/16 13:01:03;;;;;;;4.43;1.95;;;;;;;;;;5011488;28;20054;-78
2021/08/16 13:03:29;;;;;;;5.95;2.33;;;;;;;;;;5011742;28;20026;-77
2021/08/16 13:05:55;;;;;;;6.10;2.25;;;;;;;;;;5011807;28;20053;-77
2021/08/16 13:08:21;;;;;;;5.72;2.35;;;;;;;;;;5011493;28;20113;-77
2021/08/16 13:10:47;;;;;;;6.70;2.10;;;;;;;;;;4977496;28;20068;-77
2021/08/16 13:13:13;;;;;;;8.27;1.98;;;;;;;;;;4994402;28;20026;-77
2021/08/16 13:15:39;;;;;;;6.05;2.00;;;;;;;;;;4994198;28;20466;-78
2021/08/16 13:18:06;;;;;;;5.43;2.30;;;;;;;;;;5011876;28;20430;-78
2021/08/16 13:20:34;;;;;;;5.93;2.47;;;;;;;;;;5011165;28;20026;-78
2021/08/16 13:23:00;;;;;;;3.80;1.65;;;;;;;;;;5011276;28;20030;-78
2021/08/16 13:25:26;;;;;;;5.28;2.22;;;;;;;;;;5011513;28;20022;-78
2021/08/16 13:27:52;;;;;;;9.13;2.53;;;;;;;;;;5011476;28;20022;-78
2021/08/16 13:30:18;;;;;;;6.20;2.30;;;;;;;;;;4996319;28;20057;-78
2021/08/16 13:32:44;;;;;;;6.32;2.95;;;;;;;;;;5015034;28;20069;-78
2021/08/16 13:35:10;;;;;;;4.93;2.35;;;;;;;;;;5014887;28;20029;-76
2021/08/16 13:37:36;;;;;;;7.63;2.38;;;;;;;;;;4996356;28;20026;-78
2021/08/16 13:40:03;;;;;;;5.68;2.28;;;;;;;;;;4997043;28;20033;-79
2021/08/16 13:42:29;;;;;;;5.10;1.98;;;;;;;;;;5015322;28;20025;-78
2021/08/16 13:44:55;;;;;;;5.82;2.10;;;;;;;;;;5015266;28;20406;-78
2021/08/16 13:47:21;;;;;;;4.90;1.80;;;;;;;;;;5015051;28;20037;-78
2021/08/16 13:49:47;;;;;;;5.35;2.08;;;;;;;;;;4996919;28;20030;-78
2021/08/16 13:52:13;;;;;;;7.00;2.10;;;;;;;;;;5014442;28;20037;-76
2021/08/16 13:54:39;;;;;;;5.38;1.85;;;;;;;;;;5014577;28;20467;-80
2021/08/16 13:57:05;;;;;;;5.95;2.00;;;;;;;;;;5014868;28;20497;-78
2021/08/16 13:59:31;;;;;;;8.75;1.80;;;;;;;;;;5014065;28;20026;-78
2021/08/16 14:01:58;;;;;;;4.65;1.75;;;;;;;;;;5014594;28;20021;-78
2021/08/16 14:04:24;;;;;;;5.60;1.63;;;;;;;;;;5014549;28;20414;-78
2021/08/16 14:06:51;;;;;;;5.78;2.10;;;;;;;;;;5014108;28;20101;-79
2021/08/16 14:09:19;;;;;;;6.07;1.95;;;;;;;;;;4996469;28;20017;-78
2021/08/16 14:11:46;;;;;;;8.77;2.17;;;;;;;;;;5014463;28;20029;-78
2021/08/16 14:14:12;;;;;;;9.52;1.95;;;;;;;;;;4996760;28;20076;-78
2021/08/16 14:16:38;;;;;;;5.32;2.10;;;;;;;;;;5014462;28;20541;-78
2021/08/16 14:19:04;;;;;;;4.57;1.88;;;;;;;;;;5013706;28;20042;-79
2021/08/16 14:21:31;;;;;;;4.43;1.73;;;22.10;99.90;;;;;;4996847;28;20019;-78
2021/08/16 14:23:57;;;;;;;4.85;1.98;;;23.30;91.20;;;;;;5013800;28;20109;-78
2021/08/16 14:26:23;;;;;;;6.07;2.10;;;23.40;91.20;;;;;;5013926;28;20104;-78
2021/08/16 14:28:49;;;;;;;9.77;2.42;;;23.50;91.20;;;;;;5013795;28;20034;-78
2021/08/16 14:31:14;;;;;;;5.50;2.50;;;23.30;91.50;;;;;;4996161;28;20445;-78
2021/08/16 14:33:40;;;;;;;5.43;1.77;;;23.30;92.00;;;;;;5013830;28;20030;-78